createdAt,value
2019-04-20T00:02:25.395Z,52.35
2019-04-20T00:05:23.552Z,52.32
2019-04-20T00:08:08.885Z,52.61
2019-04-20T00:10:58.050Z,52.37
2019-04-20T00:13:40.658Z,52.37
2019-04-20T00:16:02.005Z,52.62
2019-04-20T00:18:34.711Z,52.61
2019-04-20T00:21:19.218Z,52.61
2019-04-20T00:23:51.812Z,52.83
2019-04-20T00:27:02.854Z,52.77
2019-04-20T00:29:17.653Z,52.74
2019-04-20T00:31:45.840Z,52.80
2019-04-20T00:34:09.147Z,52.80
2019-04-20T00:36:30.844Z,52.55
2019-04-20T00:39:03.851Z,52.73
2019-04-20T00:41:29.847Z,52.84
2019-04-20T00:44:04.758Z,52.84
2019-04-20T00:46:39.655Z,52.44
2019-04-20T00:49:11.027Z,52.56
2019-04-20T00:51:46.654Z,52.57
2019-04-20T00:54:00.887Z,52.58
2019-04-20T00:56:30.981Z,52.80
2019-04-20T00:59:13.081Z,52.84
2019-04-20T01:01:47.650Z,52.99
2019-04-20T01:04:21.948Z,53.10
2019-04-20T01:07:06.232Z,52.85
2019-04-20T01:09:41.304Z,52.89
2019-04-20T01:12:17.282Z,53.06
2019-04-20T01:14:48.681Z,52.85
2019-04-20T01:17:13.383Z,53.41
2019-04-20T01:19:42.281Z,54.05
2019-04-20T01:22:15.986Z,54.05
2019-04-20T01:24:46.263Z,54.19
2019-04-20T01:27:31.139Z,53.89
2019-04-20T01:29:48.418Z,53.72
2019-04-20T01:32:24.706Z,53.95
2019-04-20T01:34:55.301Z,53.95
2019-04-20T01:37:26.095Z,54.55
2019-04-20T01:39:50.235Z,54.48
2019-04-20T01:42:15.108Z,55.35
2019-04-20T01:44:48.562Z,56.18
2019-04-20T01:47:15.063Z,56.80
2019-04-20T01:49:47.714Z,57.22
2019-04-20T01:52:20.067Z,57.22
2019-04-20T01:55:08.715Z,58.11
2019-04-20T01:57:54.788Z,56.81
2019-04-20T02:00:32.723Z,56.06
2019-04-20T02:03:15.278Z,55.69
2019-04-20T02:05:53.130Z,55.24
2019-04-20T02:08:20.322Z,55.34
2019-04-20T02:10:51.843Z,55.42
2019-04-20T02:13:15.428Z,55.54
2019-04-20T02:15:48.560Z,55.62
2019-04-20T02:18:26.990Z,56.01
2019-04-20T02:21:04.862Z,56.28
2019-04-20T02:23:29.280Z,56.27
2019-04-20T02:25:45.955Z,56.59
2019-04-20T02:28:36.201Z,57.26
2019-04-20T02:31:24.799Z,57.26
2019-04-20T02:44:23.090Z,57.03
2019-04-20T02:46:33.700Z,57.03
2019-04-20T02:49:18.176Z,57.18
2019-04-20T02:56:43.204Z,57.36
2019-04-20T02:59:25.113Z,57.01
2019-04-20T03:01:36.004Z,57.00
2019-04-20T03:03:51.033Z,57.51
2019-04-20T03:06:31.372Z,58.15
2019-04-20T03:09:08.995Z,57.60
2019-04-20T03:11:49.760Z,57.41
2019-04-20T03:14:03.273Z,56.95
2019-04-20T03:16:35.664Z,56.79
2019-04-20T03:19:03.192Z,57.83
2019-04-20T03:21:47.633Z,58.96
2019-04-20T03:24:20.419Z,58.78
2019-04-20T03:26:40.185Z,58.18
2019-04-20T03:29:37.263Z,57.97
2019-04-20T03:32:38.322Z,61.43
2019-04-20T03:37:21.748Z,63.38
2019-04-20T03:39:40.457Z,65.08
2019-04-20T03:41:56.667Z,65.08
2019-04-20T03:44:26.487Z,65.88
2019-04-20T03:46:59.685Z,66.36
2019-04-20T03:49:48.228Z,67.94
2019-04-20T03:52:27.476Z,67.90
2019-04-20T03:55:16.548Z,67.40
2019-04-20T03:57:59.510Z,67.05
2019-04-20T04:00:43.330Z,68.30
2019-04-20T04:03:29.342Z,65.18
2019-04-20T04:05:50.726Z,64.34
2019-04-20T04:08:17.060Z,62.82
2019-04-20T04:10:54.784Z,62.24
2019-04-20T04:13:11.848Z,62.08
2019-04-20T04:15:47.909Z,61.28
2019-04-20T04:18:23.048Z,61.30
2019-04-20T04:20:51.278Z,61.36
2019-04-20T04:23:35.725Z,61.17
2019-04-20T04:26:05.865Z,60.57
2019-04-20T04:28:31.215Z,60.85
2019-04-20T04:31:07.896Z,61.01
2019-04-20T04:36:00.547Z,60.95
2019-04-20T04:38:43.526Z,61.27
2019-04-20T04:41:17.036Z,61.26
2019-04-20T04:43:37.222Z,61.47
2019-04-20T04:45:48.892Z,61.65
2019-04-20T04:48:23.783Z,61.63
2019-04-20T04:50:57.417Z,61.89
2019-04-20T04:53:31.304Z,62.03
2019-04-20T04:55:56.495Z,62.05
2019-04-20T04:58:19.627Z,62.06
2019-04-20T05:00:49.331Z,61.99
2019-04-20T05:03:33.675Z,62.25
2019-04-20T05:06:25.018Z,62.09
2019-04-20T05:08:45.288Z,62.22
2019-04-20T05:11:09.270Z,61.71
2019-04-20T05:13:47.938Z,61.98
2019-04-20T05:16:33.694Z,62.38
2019-04-20T05:19:07.718Z,62.12
2019-04-20T05:22:05.414Z,62.16
2019-04-20T05:24:32.249Z,61.95
2019-04-20T05:27:07.246Z,61.99
2019-04-20T05:29:24.378Z,62.09
2019-04-20T05:31:54.346Z,61.75
2019-04-20T05:34:40.348Z,61.59
2019-04-20T05:37:17.609Z,61.66
2019-04-20T05:39:39.886Z,61.75
2019-04-20T05:42:09.299Z,61.65
2019-04-20T05:44:48.616Z,61.15
2019-04-20T05:47:13.547Z,60.55
2019-04-20T05:49:41.943Z,60.24
2019-04-20T05:52:25.024Z,60.04
2019-04-20T05:54:44.665Z,59.91
2019-04-20T05:57:21.074Z,59.55
2019-04-20T05:59:51.394Z,58.94
2019-04-20T06:02:15.951Z,58.87
2019-04-20T06:04:59.687Z,58.53
2019-04-20T06:07:21.432Z,58.23
2019-04-20T06:09:47.910Z,58.06
2019-04-20T06:12:25.476Z,58.12
2019-04-20T06:15:04.143Z,57.70
2019-04-20T06:17:57.994Z,57.46
2019-04-20T06:20:33.434Z,56.91
2019-04-20T06:23:15.334Z,57.01
2019-04-20T06:28:06.583Z,56.34
2019-04-20T06:30:37.166Z,56.07
2019-04-20T06:34:01.512Z,55.89
2019-04-20T06:39:00.362Z,55.00
2019-04-20T06:41:33.009Z,54.81
2019-04-20T06:43:59.006Z,54.73
2019-04-20T06:46:22.684Z,53.24
2019-04-20T06:48:51.606Z,52.52
2019-04-20T06:51:25.084Z,52.52
2019-04-20T06:54:09.261Z,52.04
2019-04-20T06:56:48.531Z,52.37
2019-04-20T06:59:21.584Z,52.37
2019-04-20T07:01:56.786Z,50.93
2019-04-20T07:04:40.221Z,50.05
2019-04-20T07:09:21.757Z,48.99
2019-04-20T07:11:46.472Z,49.46
2019-04-20T07:14:04.907Z,49.18
2019-04-20T07:17:10.288Z,48.80
2019-04-20T07:19:40.306Z,48.49
2019-04-20T07:22:25.064Z,48.49
2019-04-20T07:24:53.189Z,47.17
2019-04-20T07:27:19.319Z,46.15
2019-04-20T07:29:52.006Z,46.15
2019-04-20T07:32:09.759Z,47.08
2019-04-20T07:34:51.612Z,47.08
2019-04-20T07:37:51.419Z,46.58
2019-04-20T07:40:01.079Z,46.58
2019-04-20T07:42:29.076Z,45.43
2019-04-20T07:45:02.968Z,45.43
2019-04-20T07:47:38.071Z,45.32
2019-04-20T07:49:56.811Z,44.77
2019-04-20T07:52:08.391Z,44.50
2019-04-20T07:55:17.273Z,43.44
2019-04-20T07:57:25.883Z,43.44
2019-04-20T08:00:01.713Z,42.32
2019-04-20T08:06:02.462Z,43.41
2019-04-20T08:08:40.658Z,42.41
2019-04-20T08:11:12.376Z,42.39
2019-04-20T08:13:51.253Z,42.01
2019-04-20T08:16:35.582Z,42.01
2019-04-20T08:18:49.915Z,41.87
2019-04-20T08:21:21.341Z,41.58
2019-04-20T08:23:45.898Z,41.35
2019-04-20T08:26:07.867Z,41.35
2019-04-20T08:28:39.442Z,41.89
2019-04-20T08:31:33.414Z,41.88
2019-04-20T08:34:31.270Z,41.88
2019-04-20T08:36:49.184Z,41.34
2019-04-20T08:39:30.793Z,41.77
2019-04-20T08:41:54.797Z,42.16
2019-04-20T08:44:42.885Z,42.16
2019-04-20T08:46:58.464Z,41.41
2019-04-20T08:49:26.318Z,41.44
2019-04-20T08:52:05.856Z,41.89
2019-04-20T08:54:21.955Z,41.46
2019-04-20T08:56:42.521Z,41.42
2019-04-20T08:59:03.997Z,41.19
2019-04-20T09:01:35.387Z,41.19
2019-04-20T09:04:09.751Z,40.63
2019-04-20T09:06:47.032Z,40.88
2019-04-20T09:09:33.160Z,40.79
2019-04-20T09:11:55.620Z,40.27
2019-04-20T09:14:21.393Z,40.79
2019-04-20T09:26:37.189Z,39.19
2019-04-20T09:29:05.423Z,38.85
2019-04-20T09:31:52.133Z,38.31
2019-04-20T09:34:42.384Z,39.16
2019-04-20T09:37:27.879Z,37.64
2019-04-20T09:40:06.029Z,36.96
2019-04-20T09:42:38.479Z,36.92
2019-04-20T09:45:13.366Z,36.94
2019-04-20T09:47:45.011Z,36.72
2019-04-20T09:50:27.860Z,37.27
2019-04-20T09:52:57.071Z,37.03
2019-04-20T09:55:24.405Z,36.59
2019-04-20T09:57:57.587Z,36.20
2019-04-20T10:00:32.363Z,36.12
2019-04-20T10:02:44.644Z,36.55
2019-04-20T10:05:13.812Z,35.97
2019-04-20T10:07:43.858Z,36.49
2019-04-20T10:10:21.210Z,35.92
2019-04-20T10:12:43.959Z,35.23
2019-04-20T10:15:19.094Z,35.23
2019-04-20T10:17:43.659Z,34.49
2019-04-20T10:20:20.845Z,34.72
2019-04-20T10:22:42.896Z,34.55
2019-04-20T10:25:12.857Z,34.55
2019-04-20T10:27:42.391Z,33.67
2019-04-20T10:30:12.542Z,33.77
2019-04-20T10:32:45.593Z,33.87
2019-04-20T10:35:15.093Z,34.03
2019-04-20T10:37:47.320Z,33.96
2019-04-20T10:40:31.586Z,33.38
2019-04-20T10:42:46.533Z,33.24
2019-04-20T10:45:15.291Z,33.31
2019-04-20T10:47:52.514Z,32.64
2019-04-20T10:50:22.907Z,32.42
2019-04-20T10:52:51.971Z,32.26
2019-04-20T10:55:20.841Z,32.20
2019-04-20T10:57:49.412Z,31.78
2019-04-20T11:00:21.689Z,31.41
2019-04-20T11:02:51.281Z,32.18
2019-04-20T11:05:20.676Z,32.49
2019-04-20T11:07:50.487Z,32.65
2019-04-20T11:10:25.319Z,32.15
2019-04-20T11:12:50.513Z,32.78
2019-04-20T11:15:20.948Z,32.68
2019-04-20T11:17:49.626Z,32.84
2019-04-20T11:20:19.232Z,33.03
2019-04-20T11:22:48.525Z,32.29
2019-04-20T11:25:17.307Z,32.55
2019-04-20T11:27:46.057Z,31.91
2019-04-20T11:30:16.049Z,31.97
2019-04-20T11:32:44.737Z,31.76
2019-04-20T11:35:22.921Z,31.95
2019-04-20T11:37:44.902Z,31.59
2019-04-20T11:40:14.998Z,32.27
2019-04-20T11:42:43.969Z,32.76
2019-04-20T11:45:13.122Z,32.24
2019-04-20T11:47:43.176Z,31.08
2019-04-20T11:50:13.692Z,31.24
2019-04-20T11:52:47.505Z,29.56
2019-04-20T11:55:12.800Z,28.37
2019-04-20T11:57:41.400Z,27.58
2019-04-20T12:00:13.408Z,27.27
2019-04-20T12:03:09.824Z,27.89
2019-04-20T12:05:38.158Z,27.92
2019-04-20T12:08:03.014Z,27.48
2019-04-20T12:10:33.050Z,27.25
2019-04-20T12:13:01.915Z,27.72
2019-04-20T12:15:34.529Z,27.47
2019-04-20T12:18:01.935Z,27.07
2019-04-20T12:20:30.833Z,26.82
2019-04-20T12:23:00.241Z,26.56
2019-04-20T12:25:31.516Z,26.08
2019-04-20T12:28:01.965Z,27.07
2019-04-20T12:30:30.060Z,25.74
2019-04-20T12:33:01.886Z,24.42
2019-04-20T12:35:30.000Z,27.12
2019-04-20T12:37:59.019Z,27.26
2019-04-20T12:40:28.134Z,26.45
2019-04-20T12:42:57.252Z,25.28
2019-04-20T12:45:29.269Z,26.37
2019-04-20T12:47:58.000Z,26.80
2019-04-20T12:50:27.668Z,26.49
2019-04-20T12:52:56.778Z,26.63
2019-04-20T12:55:26.408Z,25.22
2019-04-20T12:57:55.029Z,23.92
2019-04-20T13:00:30.440Z,24.25
2019-04-20T13:02:59.219Z,24.41
2019-04-20T13:05:27.975Z,24.27
2019-04-20T13:08:00.689Z,22.85
2019-04-20T13:10:27.526Z,21.85
2019-04-20T13:13:18.584Z,22.34
2019-04-20T13:16:06.426Z,21.16
2019-04-20T13:18:57.252Z,22.40
2019-04-20T13:21:27.117Z,22.37
2019-04-20T13:23:56.535Z,23.83
2019-04-20T13:26:26.886Z,22.61
2019-04-20T13:28:56.829Z,22.67
2019-04-20T13:31:26.132Z,21.76
2019-04-20T13:33:54.994Z,21.95
2019-04-20T13:36:24.155Z,21.73
2019-04-20T13:38:53.062Z,22.31
2019-04-20T13:41:24.118Z,22.51
2019-04-20T13:43:54.849Z,22.28
2019-04-20T13:46:24.817Z,22.32
2019-04-20T13:48:55.088Z,22.74
2019-04-20T13:51:23.829Z,22.76
2019-04-20T13:53:53.279Z,22.35
2019-04-20T13:56:23.771Z,23.33
2019-04-20T13:59:03.420Z,22.88
2019-04-20T14:01:41.204Z,22.79
2019-04-20T14:04:16.770Z,22.93
2019-04-20T14:06:45.752Z,22.96
2019-04-20T14:09:15.114Z,22.82
2019-04-20T14:11:45.292Z,23.32
2019-04-20T14:14:15.161Z,23.06
2019-04-20T14:16:45.221Z,22.63
2019-04-20T14:19:14.473Z,23.45
2019-04-20T14:21:43.988Z,22.67
2019-04-20T14:24:13.109Z,22.73
2019-04-20T14:26:42.894Z,22.48
2019-04-20T14:29:12.731Z,21.73
2019-04-20T14:31:41.849Z,22.13
2019-04-20T14:34:10.967Z,22.17
2019-04-20T14:36:41.145Z,22.04
2019-04-20T14:39:10.142Z,21.91
2019-04-20T14:41:40.232Z,21.14
2019-04-20T14:44:10.002Z,21.67
2019-04-20T14:46:39.957Z,21.74
2019-04-20T14:49:08.754Z,21.67
2019-04-20T14:51:37.538Z,21.41
2019-04-20T14:54:07.514Z,21.60
2019-04-20T14:56:36.117Z,21.66
2019-04-20T14:59:13.539Z,22.16
2019-04-20T15:01:45.260Z,21.92
2019-04-20T15:04:17.909Z,21.66
2019-04-20T15:06:44.503Z,21.09
2019-04-20T15:09:14.704Z,20.91
2019-04-20T15:11:45.155Z,21.07
2019-04-20T15:14:14.585Z,20.69
2019-04-20T15:16:44.583Z,20.66
2019-04-20T15:19:47.633Z,21.19
2019-04-20T15:22:39.123Z,21.59
2019-04-20T15:25:09.476Z,21.70
2019-04-20T15:27:41.117Z,21.33
2019-04-20T15:30:09.362Z,20.79
2019-04-20T15:32:38.941Z,22.05
2019-04-20T15:35:09.044Z,22.21
2019-04-20T15:37:39.385Z,22.66
2019-04-20T15:40:08.920Z,22.33
2019-04-20T15:42:49.608Z,22.48
2019-04-20T15:45:09.400Z,22.64
2019-04-20T15:47:38.370Z,22.62
2019-04-20T15:50:07.942Z,22.60
2019-04-20T15:52:42.454Z,22.63
2019-04-20T15:55:17.291Z,23.49
2019-04-20T15:57:38.658Z,23.64
2019-04-20T16:00:08.762Z,23.95
2019-04-20T16:02:47.407Z,23.36
2019-04-20T16:05:35.576Z,23.29
2019-04-20T16:08:22.137Z,23.75
2019-04-20T16:10:51.020Z,23.88
2019-04-20T16:13:26.108Z,24.30
2019-04-20T16:15:50.058Z,24.03
2019-04-20T16:18:18.945Z,23.33
2019-04-20T16:20:58.169Z,23.20
2019-04-20T16:23:18.645Z,23.23
2019-04-20T16:25:53.419Z,22.94
2019-04-20T16:28:23.670Z,23.35
2019-04-20T16:30:53.597Z,23.26
2019-04-20T16:33:22.432Z,23.29
2019-04-20T16:35:52.324Z,23.71
2019-04-20T16:38:22.360Z,23.91
2019-04-20T16:40:52.530Z,23.92
2019-04-20T16:43:29.149Z,24.11
2019-04-20T16:45:52.976Z,23.72
2019-04-20T16:48:22.124Z,24.31
2019-04-20T16:50:51.060Z,23.77
2019-04-20T16:53:19.693Z,23.90
2019-04-20T16:55:48.527Z,23.57
2019-04-20T16:58:19.811Z,24.16
2019-04-20T17:00:50.010Z,23.68
2019-04-20T17:03:19.522Z,23.89
2019-04-20T17:05:51.012Z,23.56
2019-04-20T17:08:18.817Z,23.95
2019-04-20T17:10:48.839Z,24.02
2019-04-20T17:13:30.417Z,24.01
2019-04-20T17:15:48.188Z,24.33
2019-04-20T17:18:16.810Z,24.52
2019-04-20T17:20:46.419Z,24.38
2019-04-20T17:23:15.374Z,24.27
2019-04-20T17:25:44.098Z,24.77
2019-04-20T17:28:35.226Z,24.78
2019-04-20T17:31:13.560Z,25.46
2019-04-20T17:33:53.366Z,26.02
2019-04-20T17:36:21.800Z,26.55
2019-04-20T17:38:52.643Z,26.96
2019-04-20T17:41:38.462Z,27.13
2019-04-20T17:44:06.041Z,27.17
2019-04-20T17:46:27.261Z,27.63
2019-04-20T17:49:07.565Z,27.53
2019-04-20T17:51:39.601Z,27.62
2019-04-20T17:54:08.707Z,27.83
2019-04-20T17:56:40.271Z,27.90
2019-04-20T17:59:10.357Z,28.02
2019-04-20T18:02:11.857Z,28.02
2019-04-20T18:05:06.538Z,28.16
2019-04-20T18:07:36.623Z,28.44
2019-04-20T18:10:03.156Z,28.62
2019-04-20T18:12:23.144Z,28.73
2019-04-20T18:14:53.457Z,28.78
2019-04-20T18:17:51.609Z,29.17
2019-04-20T18:20:12.687Z,29.30
2019-04-20T18:22:44.187Z,29.10
2019-04-20T18:25:32.896Z,29.33
2019-04-20T18:28:01.190Z,29.24
2019-04-20T18:30:34.603Z,29.70
2019-04-20T18:32:53.438Z,29.72
2019-04-20T18:35:24.508Z,29.79
2019-04-20T18:38:00.765Z,30.28
2019-04-20T18:40:32.558Z,30.43
2019-04-20T18:43:03.947Z,31.15
2019-04-20T18:45:39.688Z,31.21
2019-04-20T18:48:14.554Z,31.06
2019-04-20T18:50:32.594Z,31.43
2019-04-20T18:52:56.216Z,31.80
2019-04-20T18:55:38.311Z,32.36
2019-04-20T18:57:55.218Z,32.44
2019-04-20T19:00:31.582Z,32.76
2019-04-20T19:03:01.359Z,32.95
2019-04-20T19:05:26.589Z,33.21
2019-04-20T19:07:59.887Z,33.45
2019-04-20T19:10:29.611Z,33.57
2019-04-20T19:13:04.328Z,33.91
2019-04-20T19:16:04.354Z,34.47
2019-04-20T19:18:52.042Z,34.84
2019-04-20T19:21:09.112Z,35.04
2019-04-20T19:23:47.654Z,35.35
2019-04-20T19:26:16.313Z,35.46
2019-04-20T19:28:49.550Z,35.80
2019-04-20T19:31:31.733Z,35.82
2019-04-20T19:34:09.354Z,35.97
2019-04-20T19:36:28.789Z,35.90
2019-04-20T19:39:10.780Z,36.30
2019-04-20T19:41:42.884Z,36.37
2019-04-20T19:44:16.072Z,36.66
2019-04-20T19:47:09.144Z,36.51
2019-04-20T19:49:25.669Z,36.50
2019-04-20T19:52:25.495Z,36.51
2019-04-20T19:54:46.718Z,36.65
2019-04-20T19:57:22.103Z,36.64
2019-04-20T19:59:43.480Z,36.70
2019-04-20T20:02:07.736Z,36.96
2019-04-20T20:04:48.234Z,37.24
2019-04-20T20:07:22.033Z,37.77
2019-04-20T20:09:54.947Z,37.80
2019-04-20T20:12:25.475Z,38.06
2019-04-20T20:15:01.393Z,38.21
2019-04-20T20:17:48.402Z,38.58
2019-04-20T20:20:30.770Z,38.66
2019-04-20T20:22:45.358Z,38.92
2019-04-20T20:25:12.787Z,38.96
2019-04-20T20:27:51.193Z,39.07
2019-04-20T20:30:24.448Z,39.20
2019-04-20T20:33:11.545Z,39.44
2019-04-20T20:35:31.334Z,39.43
2019-04-20T20:38:11.780Z,39.66
2019-04-20T20:40:38.536Z,39.98
2019-04-20T20:43:16.138Z,40.32
2019-04-20T20:46:17.218Z,41.54
2019-04-20T20:49:03.485Z,41.61
2019-04-20T20:51:34.711Z,41.66
2019-04-20T20:54:21.602Z,41.83
2019-04-20T20:56:48.547Z,42.85
2019-04-20T20:59:25.738Z,43.20
2019-04-20T21:01:52.442Z,43.76
2019-04-20T21:04:15.349Z,44.41
2019-04-20T21:06:46.525Z,44.23
2019-04-20T21:09:18.586Z,44.64
2019-04-20T21:11:51.098Z,44.80
2019-04-20T21:14:26.097Z,43.70
2019-04-20T21:17:01.359Z,43.58
2019-04-20T21:19:45.220Z,43.46
2019-04-20T21:22:04.820Z,43.24
2019-04-20T21:24:33.698Z,43.31
2019-04-20T21:27:07.917Z,43.36
2019-04-20T21:29:43.093Z,43.64
2019-04-20T21:32:14.073Z,43.80
2019-04-20T21:34:50.376Z,43.55
2019-04-20T21:37:19.507Z,43.88
2019-04-20T21:39:56.172Z,44.20
2019-04-20T21:42:25.222Z,43.88
2019-04-20T21:45:05.522Z,43.73
2019-04-20T21:47:31.453Z,43.81
2019-04-20T21:50:18.738Z,43.87
2019-04-20T21:52:39.248Z,44.37
2019-04-20T21:55:03.783Z,43.60
2019-04-20T21:57:42.171Z,43.28
2019-04-20T22:00:25.116Z,44.11
2019-04-20T22:02:56.179Z,43.82
2019-04-20T22:05:21.137Z,43.82
2019-04-20T22:07:50.459Z,44.53
2019-04-20T22:10:24.633Z,44.18
2019-04-20T22:12:58.738Z,44.24
2019-04-20T22:15:31.589Z,43.64
2019-04-20T22:18:09.074Z,43.30
2019-04-20T22:20:37.235Z,43.16
2019-04-20T22:23:15.777Z,43.40
2019-04-20T22:25:53.028Z,42.97
2019-04-20T22:28:14.184Z,43.30
2019-04-20T22:30:50.396Z,42.41
2019-04-20T22:33:29.853Z,42.41
2019-04-20T22:36:04.169Z,43.05
2019-04-20T22:38:55.858Z,42.90
2019-04-20T22:41:23.208Z,42.88
2019-04-20T22:44:02.818Z,42.88
2019-04-20T22:46:35.755Z,42.89
2019-04-20T22:49:20.847Z,42.96
2019-04-20T22:51:48.223Z,43.67
2019-04-20T22:54:29.761Z,42.85
2019-04-20T22:56:55.149Z,43.09
2019-04-20T22:59:20.329Z,43.15
2019-04-20T23:01:54.682Z,43.24
2019-04-20T23:04:19.050Z,43.09
2019-04-20T23:06:50.253Z,43.24
2019-04-20T23:09:20.578Z,42.91
2019-04-20T23:12:04.931Z,42.91
2019-04-20T23:14:29.963Z,43.62
2019-04-20T23:17:02.526Z,43.84
2019-04-20T23:19:44.885Z,43.90
2019-04-20T23:22:11.669Z,43.65
2019-04-20T23:24:42.896Z,44.34
2019-04-20T23:27:28.623Z,44.34
2019-04-20T23:29:53.334Z,44.39
2019-04-20T23:32:28.309Z,44.33
2019-04-20T23:35:03.476Z,44.33
2019-04-20T23:37:32.981Z,44.58
2019-04-20T23:40:09.128Z,44.82
2019-04-20T23:42:49.591Z,44.82
2019-04-20T23:45:59.201Z,44.69
2019-04-20T23:48:39.270Z,45.73
2019-04-20T23:51:29.577Z,45.56
2019-04-20T23:53:51.231Z,45.12
2019-04-20T23:56:16.803Z,45.35
2019-04-20T23:58:46.593Z,45.35
